Time;durP1;ratioP1;P1;durP2;ratioP2;P2;SDS_P1;SDS_P2;PMS_P1;PMS_P2;Temp;Humidity;BMP_temperature;BMP_pressure;BME280_temperature;BME280_humidity;BME280_pressure;Samples;Min_cycle;Max_cycle;Signal;HPM_P1;HPM_P2
2023/07/28 00:01:29;;;;;;;5.05;3.67;;;;;;;;;;5107425;28;20039;-45
2023/07/28 00:03:54;;;;;;;6.17;4.10;;;;;;;;;;5102933;28;20027;-46
2023/07/28 00:06:20;;;;;;;5.65;3.95;;;;;;;;;;5100083;28;20592;-44
2023/07/28 00:08:45;;;;;;;5.32;3.67;;;;;;;;;;5099769;28;20022;-46
2023/07/28 00:11:12;;;;;;;6.10;3.90;;;;;;;;;;5096554;28;20174;-45
2023/07/28 00:13:37;;;;;;;6.15;3.40;;;;;;;;;;5102763;28;20277;-45
2023/07/28 00:16:03;;;;;;;7.20;3.50;;;;;;;;;;5104210;27;20020;-45
2023/07/28 00:18:28;;;;;;;5.38;3.53;;;;;;;;;;5109361;27;20402;-46
2023/07/28 00:20:53;;;;;;;7.53;4.10;;;;;;;;;;5107412;27;20036;-45
2023/07/28 00:23:18;;;;;;;7.03;3.57;;;;;;;;;;5105577;27;20023;-45
2023/07/28 00:25:44;;;;;;;7.53;4.20;;;;;;;;;;5101384;27;20553;-45
2023/07/28 00:28:09;;;;;;;8.57;3.80;;;;;;;;;;5100178;27;20040;-45
2023/07/28 00:30:34;;;;;;;6.67;3.37;;;;;;;;;;5103228;27;20031;-46
2023/07/28 00:32:59;;;;;;;9.17;3.83;;;;;;;;;;5107203;28;20683;-46
2023/07/28 00:35:25;;;;;;;7.47;3.90;;;;;;;;;;5105469;27;20022;-45
2023/07/28 00:37:50;;;;;;;6.40;3.80;;;;;;;;;;5107690;27;20869;-45
2023/07/28 00:40:15;;;;;;;9.77;3.90;;;;;;;;;;5106797;28;20027;-45
2023/07/28 00:42:41;;;;;;;6.37;3.47;;;;;;;;;;5099454;27;20028;-46
2023/07/28 00:45:06;;;;;;;5.18;3.53;;;;;;;;;;5107544;27;20269;-45
2023/07/28 00:47:31;;;;;;;6.35;3.83;;;;;;;;;;5098893;28;20141;-45
2023/07/28 00:49:57;;;;;;;4.67;3.33;;;;;;;;;;5100099;27;20544;-46
2023/07/28 00:52:22;;;;;;;4.90;3.33;;;;;;;;;;5113564;27;20262;-45
2023/07/28 00:54:47;;;;;;;5.33;3.30;;;;;;;;;;5102145;27;20024;-45
2023/07/28 00:57:12;;;;;;;8.03;3.70;;;;;;;;;;5112740;27;20012;-45
2023/07/28 00:59:38;;;;;;;4.97;3.20;;;;;;;;;;5108047;27;20617;-45
2023/07/28 01:02:03;;;;;;;5.27;3.20;;;;;;;;;;5109415;27;20024;-45
2023/07/28 01:04:28;;;;;;;5.32;3.50;;;;;;;;;;5102386;27;20801;-45
2023/07/28 01:06:57;;;;;;;4.15;2.97;;;;;;;;;;5107493;27;20019;-46
2023/07/28 01:09:24;;;;;;;8.57;3.28;;;;;;;;;;5099776;27;20028;-45
2023/07/28 01:11:57;;;;;;;4.30;3.20;;;;;;;;;;5100266;27;20323;-45
2023/07/28 01:14:22;;;;;;;5.72;3.80;;;;;;;;;;5109090;27;20367;-45
2023/07/28 01:16:47;;;;;;;4.18;3.10;;;;;;;;;;5108697;27;20019;-45
2023/07/28 01:19:14;;;;;;;6.47;3.25;;;;;;;;;;5108704;27;20042;-45
2023/07/28 01:21:43;;;;;;;4.45;3.17;;;;;;;;;;5102423;27;20123;-45
2023/07/28 01:24:27;;;;;;;5.18;3.40;;;;;;;;;;5113239;27;20019;-45
2023/07/28 01:26:52;;;;;;;5.60;3.65;;;;;;;;;;5109591;27;20418;-46
2023/07/28 01:29:19;;;;;;;5.37;3.40;;;;;;;;;;5107423;27;20525;-44
2023/07/28 01:31:45;;;;;;;4.95;3.05;;;;;;;;;;5101239;27;20272;-46
2023/07/28 01:34:11;;;;;;;5.57;3.30;;;;;;;;;;5108038;27;20023;-46
2023/07/28 01:36:36;;;;;;;8.10;3.28;;;;;;;;;;5106794;27;20363;-45
2023/07/28 01:39:02;;;;;;;5.00;3.53;;;;;;;;;;5107389;27;20026;-45
2023/07/28 01:41:27;;;;;;;5.25;3.55;;;;;;;;;;5105918;27;20378;-46
2023/07/28 01:43:55;;;;;;;6.20;3.37;;;;;;;;;;5102414;27;20024;-45
2023/07/28 01:46:20;;;;;;;5.30;3.47;;;;;;;;;;5106147;27;20396;-45
2023/07/28 01:48:46;;;;;;;6.40;3.50;;;;;;;;;;5101739;27;20102;-47
2023/07/28 01:51:11;;;;;;;5.37;3.53;;;;;;;;;;5094699;27;20277;-45
2023/07/28 01:53:36;;;;;;;5.07;3.37;;;;;;;;;;5100069;27;20016;-45
2023/07/28 01:56:01;;;;;;;4.40;3.43;;;;;;;;;;5107610;28;20055;-46
2023/07/28 01:58:27;;;;;;;5.80;3.90;;;;;;;;;;5101407;27;20051;-45
2023/07/28 02:00:52;;;;;;;5.32;3.30;;;;;;;;;;5107349;27;20027;-45
2023/07/28 02:03:17;;;;;;;6.10;3.37;;;;;;;;;;5101481;28;20124;-44
2023/07/28 02:05:44;;;;;;;5.40;3.20;;;;;;;;;;5110439;27;20280;-45
2023/07/28 02:08:09;;;;;;;4.72;3.70;;;;;;;;;;5095732;27;20035;-46
2023/07/28 02:10:35;;;;;;;7.13;3.90;;;;;;;;;;5107576;27;20031;-45
2023/07/28 02:13:00;;;;;;;5.63;3.73;;;;;;;;;;5108339;27;20038;-45
2023/07/28 02:15:25;;;;;;;9.10;4.17;;;;;;;;;;5108068;27;20351;-45
2023/07/28 02:17:50;;;;;;;8.38;4.15;;;;;;;;;;5105788;27;20308;-46
2023/07/28 02:20:16;;;;;;;8.60;4.50;;;;;;;;;;5102221;27;20020;-45
2023/07/28 02:22:44;;;;;;;8.00;4.75;;;;;;;;;;5099476;27;22673;-45
2023/07/28 02:25:10;;;;;;;6.63;4.47;;;;;;;;;;5083724;27;20499;-45
2023/07/28 02:27:35;;;;;;;8.85;4.68;;;;;;;;;;5102800;27;20103;-45
2023/07/28 02:30:01;;;;;;;5.82;4.55;;;;;;;;;;5107683;27;20088;-45
2023/07/28 02:32:28;;;;;;;5.55;3.78;;;;;;;;;;5106991;27;20023;-46
2023/07/28 02:34:53;;;;;;;6.97;3.53;;;;;;;;;;5102089;27;20015;-45
2023/07/28 02:37:19;;;;;;;5.43;3.40;;;;;;;;;;5104293;27;20027;-45
2023/07/28 02:39:44;;;;;;;8.60;3.37;;;;;;;;;;5100868;27;21817;-45
2023/07/28 02:42:09;;;;;;;2.93;2.27;;;;;;;;;;5108662;27;20334;-45
2023/07/28 02:44:34;;;;;;;5.53;3.17;;;;;;;;;;5107146;27;20797;-45
2023/07/28 02:47:00;;;;;;;6.80;3.40;;;;;;;;;;5107307;27;20289;-45
2023/07/28 02:49:25;;;;;;;6.63;3.50;;;;;;;;;;5108261;27;20075;-45
2023/07/28 02:51:50;;;;;;;6.53;3.70;;;;;;;;;;5097093;27;20364;-45
2023/07/28 02:54:15;;;;;;;6.23;3.53;;;;;;;;;;5092129;27;21273;-45
2023/07/28 02:56:41;;;;;;;4.57;3.20;;;;;;;;;;5099488;27;20123;-45
2023/07/28 02:59:06;;;;;;;7.30;3.97;;;;;;;;;;5107299;27;20024;-47
2023/07/28 03:01:35;;;;;;;4.85;3.55;;;;;;;;;;5107298;27;20282;-45
2023/07/28 03:04:03;;;;;;;5.82;3.83;;;;;;;;;;5100489;28;20042;-45
2023/07/28 03:06:28;;;;;;;5.72;3.67;;;;;;;;;;5105015;28;20105;-46
2023/07/28 03:08:54;;;;;;;5.80;3.83;;;;;;;;;;5104563;27;20028;-45
2023/07/28 03:11:19;;;;;;;5.03;3.40;;;;;;;;;;5102489;28;20725;-46
2023/07/28 03:13:45;;;;;;;4.47;3.03;;;;;;;;;;5096203;28;20019;-46
2023/07/28 03:16:10;;;;;;;4.30;2.80;;;;;;;;;;5104555;27;20016;-45
2023/07/28 03:18:35;;;;;;;4.90;2.58;;;;;;;;;;5100734;28;20023;-45
2023/07/28 03:21:01;;;;;;;5.77;2.53;;;;;;;;;;5103513;28;20030;-45
2023/07/28 03:23:26;;;;;;;4.57;2.20;;;;;;;;;;5082885;28;20019;-45
2023/07/28 03:25:51;;;;;;;4.17;2.27;;;;;;;;;;5096729;28;20028;-46
2023/07/28 03:28:17;;;;;;;6.75;2.17;;;;;;;;;;5104290;28;20334;-45
2023/07/28 03:30:42;;;;;;;3.90;1.90;;;;;;;;;;5103496;28;20132;-45
2023/07/28 03:33:07;;;;;;;4.40;2.35;;;;;;;;;;5107623;28;20277;-45
2023/07/28 03:35:32;;;;;;;2.50;1.23;;;;;;;;;;5108252;28;20016;-45
2023/07/28 03:37:58;;;;;;;2.57;1.93;;;;;;;;;;5099741;28;20635;-46
2023/07/28 03:40:23;;;;;;;3.90;2.57;;;;;;;;;;5102556;28;20281;-45
2023/07/28 03:42:48;;;;;;;4.10;2.37;;;;;;;;;;5082113;28;20407;-45
2023/07/28 03:45:14;;;;;;;4.55;2.05;;;;;;;;;;5090627;28;20281;-45
2023/07/28 03:47:39;;;;;;;4.47;2.13;;;;;;;;;;5100868;28;20077;-45
2023/07/28 03:50:05;;;;;;;2.17;1.70;;;;;;;;;;5098192;27;20066;-45
2023/07/28 03:52:30;;;;;;;5.63;3.22;;;;;;;;;;5109038;27;20015;-45
2023/07/28 03:54:55;;;;;;;4.00;2.73;;;;;;;;;;5105131;28;20047;-45
2023/07/28 03:57:21;;;;;;;2.43;1.70;;;;;;;;;;5100552;28;20023;-47
2023/07/28 03:59:46;;;;;;;2.97;2.23;;;;;;;;;;5103754;28;20630;-45
2023/07/28 04:02:11;;;;;;;3.23;2.00;;;;;;;;;;5103097;28;20348;-45
2023/07/28 04:04:37;;;;;;;3.60;2.40;;;;;;;;;;5107448;27;20028;-45
2023/07/28 04:07:02;;;;;;;4.03;2.40;;;;;;;;;;5105484;27;20275;-45
2023/07/28 04:09:27;;;;;;;2.97;2.00;;;;;;;;;;5109930;27;20478;-45
2023/07/28 04:11:53;;;;;;;1.85;1.30;;;;;;;;;;5104802;27;20042;-45
2023/07/28 04:14:18;;;;;;;3.95;2.13;;;;;;;;;;5083364;28;20466;-45
2023/07/28 04:16:43;;;;;;;2.90;1.93;;;;;;;;;;5100082;27;20139;-45
2023/07/28 04:19:08;;;;;;;3.37;1.70;;;;;;;;;;5101141;27;20031;-45
2023/07/28 04:21:34;;;;;;;2.88;1.60;;;;;;;;;;5109976;27;20053;-45
2023/07/28 04:23:59;;;;;;;2.53;1.70;;;;;;;;;;5112130;27;20032;-46
2023/07/28 04:26:24;;;;;;;2.93;1.47;;;;;;;;;;5108905;27;20531;-45
2023/07/28 04:28:50;;;;;;;3.58;1.70;;;;;;;;;;5103191;27;20277;-47
2023/07/28 04:31:15;;;;;;;2.90;1.42;;;;;;;;;;5109845;27;20019;-45
2023/07/28 04:33:41;;;;;;;2.20;1.50;;;;;;;;;;5095141;27;20103;-45
2023/07/28 04:36:06;;;;;;;3.22;1.55;;;;;;;;;;5109509;27;20012;-46
2023/07/28 04:38:31;;;;;;;2.63;1.30;;;;;;;;;;5105881;28;20023;-45
2023/07/28 04:40:56;;;;;;;2.80;1.80;;;;;;;;;;5096037;27;20269;-45
2023/07/28 04:43:22;;;;;;;3.60;2.50;;;;;;;;;;5108179;27;20074;-45
2023/07/28 04:45:47;;;;;;;4.43;2.13;;;;;;;;;;5105144;28;20031;-45
2023/07/28 04:48:12;;;;;;;3.87;2.00;;;;;;;;;;5099616;28;20062;-45
2023/07/28 04:50:37;;;;;;;3.57;1.50;;;;;;;;;;5099538;27;20281;-45
2023/07/28 04:53:03;;;;;;;2.27;1.30;;;;;;;;;;5101777;27;20096;-45
2023/07/28 04:55:28;;;;;;;3.47;1.73;;;;;;;;;;5089485;27;20012;-45
2023/07/28 04:57:54;;;;;;;5.87;1.80;;;;;;;;;;5106499;27;20498;-45
2023/07/28 05:00:19;;;;;;;4.15;1.60;;;;;;;;;;5109474;27;20309;-45
2023/07/28 05:02:45;;;;;;;4.13;1.63;;;;;;;;;;5089936;27;20041;-45
2023/07/28 05:05:10;;;;;;;2.93;1.80;;;;;;;;;;5096649;28;20055;-45
2023/07/28 05:07:35;;;;;;;3.13;1.70;;;;;;;;;;5104984;27;20277;-46
2023/07/28 05:10:01;;;;;;;3.42;1.40;;;;;;;;;;5106426;28;20377;-45
2023/07/28 05:12:26;;;;;;;4.20;1.43;;;;;;;;;;5108017;28;20107;-45
2023/07/28 05:14:51;;;;;;;2.17;1.13;;;;;;;;;;5107181;27;20291;-45
2023/07/28 05:17:16;;;;;;;3.63;1.47;;;;;;;;;;5104916;27;20390;-45
2023/07/28 05:19:42;;;;;;;1.83;1.17;;;;;;;;;;5104816;27;20309;-45
2023/07/28 05:22:07;;;;;;;3.60;1.40;;;;;;;;;;5101326;28;20640;-45
2023/07/28 05:24:33;;;;;;;3.78;2.15;;;;;;;;;;5104125;27;20273;-45
2023/07/28 05:26:58;;;;;;;1.73;1.13;;;;;;;;;;5106131;27;20363;-45
2023/07/28 05:29:24;;;;;;;2.72;1.17;;;;;;;;;;5114127;27;20031;-45
2023/07/28 05:31:49;;;;;;;2.85;1.38;;;;;;;;;;5099581;27;20024;-45
2023/07/28 05:34:14;;;;;;;2.97;1.40;;;;;;;;;;5102003;27;20023;-45
2023/07/28 05:36:40;;;;;;;1.70;1.00;;;;;;;;;;5106271;27;20699;-45
2023/07/28 05:39:05;;;;;;;1.60;1.10;;;;;;;;;;5101523;27;20019;-45
2023/07/28 05:41:30;;;;;;;2.50;1.20;;;;;;;;;;5088978;27;20100;-46
2023/07/28 05:43:55;;;;;;;2.33;1.13;;;;;;;;;;5099219;27;20277;-45
2023/07/28 05:46:21;;;;;;;7.05;3.88;;;;;;;;;;5089684;27;20305;-46
2023/07/28 05:48:46;;;;;;;1.33;0.80;;;;;;;;;;5103675;27;20106;-46
2023/07/28 05:51:11;;;;;;;1.20;0.70;;;;;;;;;;5098542;27;20034;-45
2023/07/28 05:53:37;;;;;;;4.50;1.43;;;;;;;;;;5106112;27;20298;-46
2023/07/28 05:56:03;;;;;;;2.10;1.27;;;;;;;;;;5093437;27;20277;-45
2023/07/28 05:58:28;;;;;;;2.47;0.80;;;;;;;;;;5109855;27;20089;-46
2023/07/28 06:00:53;;;;;;;1.13;0.53;;;;;;;;;;5114245;27;20498;-45
2023/07/28 06:03:19;;;;;;;1.40;0.70;;;;;;;;;;5094541;28;20107;-45
2023/07/28 06:05:44;;;;;;;1.97;0.90;;;;;;;;;;5106204;27;20024;-45
2023/07/28 06:08:09;;;;;;;1.20;0.70;;;;;;;;;;5112923;27;20480;-45
2023/07/28 06:10:34;;;;;;;1.43;0.90;;;;;;;;;;5112886;27;20280;-45
2023/07/28 06:13:00;;;;;;;2.00;0.80;;;;;;;;;;5108022;27;20274;-45
2023/07/28 06:15:25;;;;;;;1.80;0.90;;;;;;;;;;5104225;27;20365;-46
2023/07/28 06:17:50;;;;;;;1.35;0.93;;;;;;;;;;5102967;27;20016;-45
2023/07/28 06:20:16;;;;;;;3.70;1.30;;;;;;;;;;5103947;27;20034;-46
2023/07/28 06:22:41;;;;;;;1.42;0.77;;;;;;;;;;5096071;28;20393;-45
2023/07/28 06:25:07;;;;;;;1.70;0.80;;;;;;;;;;5103102;27;20528;-46
2023/07/28 06:27:32;;;;;;;4.13;1.98;;;;;;;;;;5106155;28;20031;-45
2023/07/28 06:29:57;;;;;;;2.58;1.23;;;;;;;;;;5105745;28;20132;-45
2023/07/28 06:32:23;;;;;;;2.67;1.30;;;;;;;;;;5105874;27;20051;-46
2023/07/28 06:34:49;;;;;;;2.40;1.30;;;;;;;;;;5110881;27;20643;-45
2023/07/28 06:37:14;;;;;;;2.95;1.92;;;;;;;;;;5100781;27;20112;-46
2023/07/28 06:39:39;;;;;;;3.70;1.43;;;;;;;;;;5101523;28;20038;-46
2023/07/28 06:42:05;;;;;;;5.17;1.43;;;;;;;;;;5104950;27;20946;-45
2023/07/28 06:44:31;;;;;;;1.83;1.23;;;;;;;;;;5100906;28;20288;-44
2023/07/28 06:46:56;;;;;;;2.25;1.40;;;;;;;;;;5105191;27;20028;-45
2023/07/28 06:49:21;;;;;;;4.37;1.73;;;;;;;;;;5107774;27;20126;-45
2023/07/28 06:51:46;;;;;;;2.55;1.48;;;;;;;;;;5111672;27;20270;-45
2023/07/28 06:54:13;;;;;;;2.75;1.50;;;;;;;;;;5098466;27;20069;-45
2023/07/28 06:56:39;;;;;;;2.73;1.53;;;;;;;;;;5109439;27;20110;-45
2023/07/28 06:59:05;;;;;;;2.28;1.50;;;;;;;;;;5107309;27;20011;-45
2023/07/28 07:01:30;;;;;;;2.55;1.38;;;;;;;;;;5109463;27;20028;-45
2023/07/28 07:03:56;;;;;;;2.90;1.48;;;;;;;;;;5104902;28;20026;-45
2023/07/28 07:06:21;;;;;;;1.00;0.73;;;;;;;;;;5111931;27;20022;-45
2023/07/28 07:08:46;;;;;;;5.17;1.57;;;;;;;;;;5099422;28;20027;-45
2023/07/28 07:11:12;;;;;;;3.30;1.63;;;;;;;;;;5106056;28;20023;-45
2023/07/28 07:13:37;;;;;;;2.77;1.70;;;;;;;;;;5104401;28;20111;-45
2023/07/28 07:16:02;;;;;;;5.60;1.77;;;;;;;;;;5098605;28;20330;-45
2023/07/28 07:18:27;;;;;;;2.45;1.38;;;;;;;;;;5106030;27;20030;-45
2023/07/28 07:20:53;;;;;;;2.05;1.33;;;;;;;;;;5096797;27;20059;-46
2023/07/28 07:23:18;;;;;;;2.90;1.40;;;;;;;;;;5099157;28;20028;-45
2023/07/28 07:25:43;;;;;;;2.50;1.37;;;;;;;;;;5095619;28;20310;-45
2023/07/28 07:28:09;;;;;;;6.13;1.70;;;;;;;;;;5102520;28;20424;-45
2023/07/28 07:30:34;;;;;;;2.20;1.00;;;;;;;;;;5092005;28;20024;-45
2023/07/28 07:33:00;;;;;;;2.73;1.73;;;;;;;;;;5099007;28;21282;-45
2023/07/28 07:35:25;;;;;;;2.78;1.33;;;;;;;;;;5094325;28;20289;-45
2023/07/28 07:37:50;;;;;;;3.73;1.83;;;;;;;;;;5099504;28;20024;-45
2023/07/28 07:40:16;;;;;;;2.40;1.33;;;;;;;;;;5094899;28;20358;-45
2023/07/28 07:42:42;;;;;;;2.15;1.23;;;;;;;;;;5099393;28;20269;-45
2023/07/28 07:45:08;;;;;;;4.03;1.67;;;;;;;;;;5103348;28;20019;-46
2023/07/28 07:47:34;;;;;;;3.05;1.35;;;;;;;;;;5099912;28;20046;-45
2023/07/28 07:50:00;;;;;;;3.67;1.63;;;;;;;;;;5103428;28;20031;-45
2023/07/28 07:52:25;;;;;;;4.38;1.58;;;;;;;;;;5101018;28;20269;-45
2023/07/28 07:54:51;;;;;;;2.47;1.50;;;;;;;;;;5098336;28;20065;-45
2023/07/28 07:57:16;;;;;;;2.20;1.43;;;;;;;;;;5101455;28;20016;-45
2023/07/28 07:59:41;;;;;;;2.90;1.60;;;;;;;;;;5105543;28;20023;-45
2023/07/28 08:02:06;;;;;;;3.83;2.35;;;;;;;;;;5107127;28;20498;-45
2023/07/28 08:04:32;;;;;;;2.72;1.50;;;;;;;;;;5097229;28;20127;-45
2023/07/28 08:06:57;;;;;;;5.38;2.28;;;;;;;;;;5106326;28;20657;-45
2023/07/28 08:09:22;;;;;;;3.03;1.87;;;;;;;;;;5100237;28;20160;-45
2023/07/28 08:11:48;;;;;;;3.35;1.75;;;;;;;;;;5102742;28;20034;-45
2023/07/28 08:14:13;;;;;;;2.60;1.38;;;;;;;;;;5107975;28;20031;-45
2023/07/28 08:16:39;;;;;;;2.30;1.60;;;;;;;;;;5108933;28;20045;-45
2023/07/28 08:19:04;;;;;;;2.83;1.60;;;;;;;;;;5109403;28;20020;-45
2023/07/28 08:21:36;;;;;;;2.13;1.40;;;;;;;;;;5101557;28;20028;-45
2023/07/28 08:24:01;;;;;;;2.33;1.30;;;;;;;;;;5096747;28;20027;-45
2023/07/28 08:26:26;;;;;;;5.87;1.53;;;;;;;;;;5100786;28;20028;-45
2023/07/28 08:28:51;;;;;;;3.13;1.57;;;;;;;;;;5097821;28;20276;-45
2023/07/28 08:31:17;;;;;;;3.80;1.87;;;;;;;;;;5105280;28;20024;-45
2023/07/28 08:33:42;;;;;;;2.93;1.40;;;;;;;;;;5083180;28;21295;-46
2023/07/28 08:36:07;;;;;;;1.90;1.13;;;;;;;;;;5103153;27;20273;-45
2023/07/28 08:38:32;;;;;;;1.50;0.90;;;;;;;;;;5106397;27;20084;-45
2023/07/28 08:40:58;;;;;;;2.58;1.60;;;;;;;;;;5111529;27;20513;-45
2023/07/28 08:43:23;;;;;;;2.80;1.75;;;;;;;;;;5106991;27;20035;-45
2023/07/28 08:45:49;;;;;;;1.00;0.60;;;;;;;;;;5097134;27;20738;-45
2023/07/28 08:48:14;;;;;;;2.13;1.15;;;;;;;;;;5106490;27;20095;-45
2023/07/28 08:50:39;;;;;;;1.70;1.10;;;;;;;;;;5110317;27;20027;-45
2023/07/28 08:53:05;;;;;;;2.30;1.50;;;;;;;;;;5097864;28;20027;-45
2023/07/28 08:55:30;;;;;;;4.00;1.10;;;;;;;;;;5101587;27;20360;-45
2023/07/28 08:57:55;;;;;;;3.67;1.00;;;;;;;;;;5101942;27;20311;-45
2023/07/28 09:00:21;;;;;;;2.03;1.17;;;;;;;;;;5105571;27;20648;-45
2023/07/28 09:02:48;;;;;;;1.65;0.80;;;;;;;;;;5105678;28;20271;-45
2023/07/28 09:05:18;;;;;;;2.63;1.08;;;;;;;;;;5106719;27;20034;-45
2023/07/28 09:07:43;;;;;;;1.67;1.00;;;;;;;;;;5104001;27;20026;-45
2023/07/28 09:10:09;;;;;;;2.10;1.00;;;;;;;;;;5094531;28;20035;-45
2023/07/28 09:12:34;;;;;;;1.40;1.02;;;;;;;;;;5093619;27;20020;-45
2023/07/28 09:14:59;;;;;;;2.73;1.00;;;;;;;;;;5107376;27;20072;-44
2023/07/28 09:17:24;;;;;;;1.75;1.10;;;;;;;;;;5108262;27;20281;-45
2023/07/28 09:19:53;;;;;;;1.67;0.80;;;;;;;;;;5112465;27;20035;-44
2023/07/28 09:22:20;;;;;;;2.17;1.20;;;;;;;;;;5106109;27;20309;-45
2023/07/28 09:24:46;;;;;;;1.85;1.10;;;;;;;;;;5101643;27;20034;-45
2023/07/28 09:27:32;;;;;;;3.03;0.63;;;;;;;;;;5098474;27;20024;-45
2023/07/28 09:29:57;;;;;;;7.72;4.90;;;;;;;;;;5105155;27;20027;-45
2023/07/28 09:32:28;;;;;;;2.40;1.23;;;;;;;;;;5091893;27;20077;-45
2023/07/28 09:35:05;;;;;;;2.22;1.50;;;;;;;;;;5102210;27;20102;-45
2023/07/28 09:37:30;;;;;;;2.15;1.27;;;;;;;;;;5106559;27;20115;-45
2023/07/28 09:39:56;;;;;;;4.55;1.50;;;;;;;;;;5105897;27;20032;-45
2023/07/28 09:42:21;;;;;;;3.50;1.70;;;;;;;;;;5107508;28;20378;-45
2023/07/28 09:44:46;;;;;;;2.20;1.45;;;;;;;;;;5106557;27;20358;-45
2023/07/28 09:47:12;;;;;;;4.87;1.60;;;;;;;;;;5097452;27;20027;-45
2023/07/28 09:49:42;;;;;;;3.20;1.58;;;;;;;;;;5109535;27;20328;-45
2023/07/28 09:52:11;;;;;;;1.27;0.77;;;;;;;;;;5104833;27;20016;-45
2023/07/28 09:54:40;;;;;;;3.70;1.23;;;;;;;;;;5107417;27;20066;-45
2023/07/28 09:57:12;;;;;;;2.10;1.15;;;;;;;;;;5107838;27;20027;-45
2023/07/28 09:59:39;;;;;;;2.42;1.38;;;;;;;;;;5107984;27;20039;-45
2023/07/28 10:02:05;;;;;;;2.72;1.50;;;;;;;;;;5104157;28;20135;-46
2023/07/28 10:04:31;;;;;;;2.33;1.35;;;;;;;;;;5100275;27;20032;-45
2023/07/28 10:06:56;;;;;;;1.73;1.00;;;;;;;;;;5114586;27;20088;-45
2023/07/28 10:09:25;;;;;;;1.20;0.80;;;;;;;;;;5110785;27;20051;-45
2023/07/28 10:11:51;;;;;;;1.20;0.80;;;;;;;;;;5099965;27;20053;-46
2023/07/28 10:14:30;;;;;;;2.67;1.45;;;;;;;;;;5103242;28;20024;-45
2023/07/28 10:16:56;;;;;;;1.70;1.08;;;;;;;;;;5090711;28;20039;-45
2023/07/28 10:19:21;;;;;;;1.83;1.10;;;;;;;;;;5097924;27;20414;-45
2023/07/28 10:21:46;;;;;;;2.13;1.13;;;;;;;;;;5110232;27;20023;-45
2023/07/28 10:24:13;;;;;;;1.90;1.07;;;;;;;;;;5109745;27;20098;-45
2023/07/28 10:26:39;;;;;;;1.83;0.95;;;;;;;;;;5100216;27;20284;-45
2023/07/28 10:29:14;;;;;;;2.08;1.02;;;;;;;;;;5104027;27;20023;-45
2023/07/28 10:31:58;;;;;;;1.27;0.80;;;;;;;;;;5106480;27;20493;-45
2023/07/28 10:34:24;;;;;;;1.80;0.90;;;;;;;;;;5107598;27;20410;-45
2023/07/28 10:36:56;;;;;;;0.95;0.57;;;;;;;;;;5104121;27;20466;-45
2023/07/28 10:39:22;;;;;;;0.73;0.60;;;;;;;;;;5106196;27;20035;-45
2023/07/28 10:42:08;;;;;;;2.20;0.50;;;;;;;;;;5104448;27;20500;-46
2023/07/28 10:44:34;;;;;;;1.33;0.70;;;;;;;;;;5097257;28;20023;-45
2023/07/28 10:47:00;;;;;;;1.83;0.93;;;;;;;;;;5094381;27;20019;-46
2023/07/28 10:49:26;;;;;;;1.10;0.80;;;;;;;;;;5103156;27;20096;-45
2023/07/28 10:51:51;;;;;;;1.25;0.75;;;;;;;;;;5104756;27;20026;-45
2023/07/28 10:54:19;;;;;;;0.98;0.73;;;;;;;;;;5106841;27;20436;-45
2023/07/28 10:56:45;;;;;;;1.33;0.77;;;;;;;;;;5106418;27;20023;-45
2023/07/28 10:59:10;;;;;;;2.97;0.88;;;;;;;;;;5104717;28;20015;-45
2023/07/28 11:01:37;;;;;;;4.13;1.17;;;;;;;;;;5102514;27;20152;-46
2023/07/28 11:04:23;;;;;;;2.67;0.88;;;;;;;;;;5103544;28;20012;-45
2023/07/28 11:06:49;;;;;;;1.92;0.85;;;;;;;;;;5106187;27;20076;-45
2023/07/28 11:09:15;;;;;;;1.40;0.80;;;;;;;;;;5108520;28;20020;-45
2023/07/28 11:11:41;;;;;;;2.38;0.57;;;;;;;;;;5098705;27;20363;-45
2023/07/28 11:14:07;;;;;;;1.90;0.70;;;;;;;;;;5095180;27;20176;-45
2023/07/28 11:16:38;;;;;;;1.10;0.63;;;;;;;;;;5094911;28;20072;-46
2023/07/28 11:19:07;;;;;;;1.02;0.63;;;;;;;;;;5076575;28;20031;-45
2023/07/28 11:21:36;;;;;;;8.45;4.28;;;;;;;;;;5104346;28;20032;-45
2023/07/28 11:24:02;;;;;;;1.95;0.95;;;;;;;;;;5088732;28;20520;-46
2023/07/28 11:26:28;;;;;;;1.30;0.80;;;;;;;;;;5107209;28;20019;-45
2023/07/28 11:28:54;;;;;;;3.33;0.93;;;;;;;;;;5105400;28;20019;-45
2023/07/28 11:31:22;;;;;;;3.15;0.68;;;;;;;;;;5105082;28;20020;-45
2023/07/28 11:33:48;;;;;;;1.55;0.90;;;;;;;;;;5094851;28;20030;-46
2023/07/28 11:36:21;;;;;;;1.20;0.70;;;;;;;;;;5104298;28;20023;-45
2023/07/28 11:38:46;;;;;;;1.20;0.68;;;;;;;;;;5101473;28;20682;-46
2023/07/28 11:41:12;;;;;;;3.13;0.88;;;;;;;;;;5102713;28;20039;-45
2023/07/28 11:43:37;;;;;;;1.23;0.80;;;;;;;;;;5083816;28;20115;-45
2023/07/28 11:46:02;;;;;;;1.13;0.80;;;;;;;;;;5103325;28;20044;-45
2023/07/28 11:48:30;;;;;;;2.13;0.90;;;;;;;;;;5103110;28;20036;-45
2023/07/28 11:50:56;;;;;;;2.58;0.90;;;;;;;;;;5100421;28;20036;-45
2023/07/28 11:53:21;;;;;;;1.73;1.23;;;;;;;;;;5101530;28;20039;-45
2023/07/28 11:55:47;;;;;;;0.98;0.68;;;;;;;;;;5098852;28;20099;-45
2023/07/28 11:58:12;;;;;;;1.45;1.00;;;;;;;;;;5104607;28;20393;-45
2023/07/28 12:00:42;;;;;;;1.90;0.93;;;;;;;;;;5110001;28;20081;-45
2023/07/28 12:03:09;;;;;;;2.50;0.95;;;;;;;;;;5105045;28;20359;-45
2023/07/28 12:05:35;;;;;;;1.50;0.70;;;;;;;;;;5110626;28;20063;-45
2023/07/28 12:08:00;;;;;;;2.13;1.05;;;;;;;;;;5107671;28;20051;-45
2023/07/28 12:10:26;;;;;;;1.42;0.90;;;;;;;;;;5085966;27;20490;-45
2023/07/28 12:12:51;;;;;;;0.98;0.70;;;;;;;;;;5099179;27;20028;-46
2023/07/28 12:15:27;;;;;;;0.67;0.53;;;;;;;;;;5108041;27;20016;-45
2023/07/28 12:18:08;;;;;;;1.73;0.70;;;;;;;;;;5112927;27;20284;-45
2023/07/28 12:20:53;;;;;;;1.25;0.70;;;;;;;;;;5102465;28;22298;-45
2023/07/28 12:23:20;;;;;;;11.13;5.40;;;;;;;;;;5111325;27;20508;-45
2023/07/28 12:25:45;;;;;;;1.42;0.70;;;;;;;;;;5110816;27;20042;-45
2023/07/28 12:28:10;;;;;;;1.75;0.90;;;;;;;;;;5102152;28;20019;-46
2023/07/28 12:30:36;;;;;;;5.37;0.80;;;;;;;;;;5105531;27;20024;-45
2023/07/28 12:33:02;;;;;;;0.57;0.43;;;;;;;;;;5103553;27;20343;-45
2023/07/28 12:35:31;;;;;;;1.52;0.65;;;;;;;;;;5113291;27;20478;-45
2023/07/28 12:37:59;;;;;;;1.38;0.65;;;;;;;;;;5108351;27;20081;-45
2023/07/28 12:40:25;;;;;;;1.05;0.65;;;;;;;;;;5106913;27;20397;-45
2023/07/28 12:42:50;;;;;;;2.55;1.23;;;;;;;;;;5111144;27;20474;-45
2023/07/28 12:45:15;;;;;;;0.88;0.60;;;;;;;;;;5103266;27;20032;-45
2023/07/28 12:47:41;;;;;;;1.00;0.32;;;;;;;;;;5111142;27;20119;-44
2023/07/28 12:50:07;;;;;;;6.40;2.72;;;;;;;;;;5096150;27;20050;-45
2023/07/28 12:52:32;;;;;;;0.60;0.45;;;;;;;;;;5110049;27;20423;-45
2023/07/28 12:54:58;;;;;;;0.63;0.37;;;;;;;;;;5106239;28;20031;-45
2023/07/28 12:57:24;;;;;;;0.80;0.50;;;;;;;;;;5109300;27;20760;-45
2023/07/28 12:59:49;;;;;;;0.80;0.45;;;;;;;;;;5103285;28;20019;-45
2023/07/28 13:02:14;;;;;;;1.33;0.63;;;;;;;;;;5106368;27;20055;-45
2023/07/28 13:04:39;;;;;;;4.07;0.50;;;;;;;;;;5109265;27;20032;-45
2023/07/28 13:07:05;;;;;;;2.50;0.40;;;;;;;;;;5098117;28;20618;-45
2023/07/28 13:09:30;;;;;;;0.70;0.40;;;;;;;;;;5103489;27;20031;-45
2023/07/28 13:11:55;;;;;;;2.00;0.50;;;;;;;;;;5111448;27;20300;-46
2023/07/28 13:14:20;;;;;;;0.50;0.40;;;;;;;;;;5108469;27;20016;-47
2023/07/28 13:16:46;;;;;;;0.80;0.50;;;;;;;;;;5106609;27;20043;-45
2023/07/28 13:19:11;;;;;;;0.90;0.40;;;;;;;;;;5110554;27;20032;-45
2023/07/28 13:21:37;;;;;;;0.70;0.30;;;;;;;;;;5110942;27;20020;-46
2023/07/28 13:24:03;;;;;;;1.10;0.50;;;;;;;;;;5098194;27;20035;-45
2023/07/28 13:26:28;;;;;;;0.50;0.50;;;;;;;;;;5108721;27;20265;-45
2023/07/28 13:28:53;;;;;;;1.50;0.43;;;;;;;;;;5100673;27;20033;-45
2023/07/28 13:31:18;;;;;;;1.03;0.50;;;;;;;;;;5097723;27;20031;-45
2023/07/28 13:33:44;;;;;;;4.68;2.05;;;;;;;;;;5102637;27;20032;-45
2023/07/28 13:36:10;;;;;;;1.02;0.50;;;;;;;;;;5109618;27;20020;-45
2023/07/28 13:38:35;;;;;;;0.77;0.38;;;;;;;;;;5087461;28;20385;-46
2023/07/28 13:41:03;;;;;;;0.60;0.50;;;;;;;;;;5108000;27;20056;-45
2023/07/28 13:43:28;;;;;;;1.45;0.52;;;;;;;;;;5102228;28;20031;-45
2023/07/28 13:45:53;;;;;;;1.05;0.60;;;;;;;;;;5108784;27;20027;-45
2023/07/28 13:48:19;;;;;;;1.80;0.70;;;;;;;;;;5102643;27;20019;-45
2023/07/28 13:50:44;;;;;;;1.92;0.60;;;;;;;;;;5105969;27;20355;-45
2023/07/28 13:53:09;;;;;;;0.80;0.40;;;;;;;;;;5108406;27;20055;-46
2023/07/28 13:55:35;;;;;;;2.13;0.60;;;;;;;;;;5110097;27;20791;-45
2023/07/28 13:58:00;;;;;;;0.53;0.30;;;;;;;;;;5099323;27;20269;-45
2023/07/28 14:00:25;;;;;;;0.95;0.55;;;;;;;;;;5104372;27;20032;-46
2023/07/28 14:02:51;;;;;;;0.47;0.27;;;;;;;;;;5103223;27;20042;-45
2023/07/28 14:05:17;;;;;;;0.83;0.40;;;;;;;;;;5100357;27;20015;-45
2023/07/28 14:07:42;;;;;;;0.77;0.50;;;;;;;;;;5103642;27;20088;-45
2023/07/28 14:10:07;;;;;;;1.93;0.60;;;;;;;;;;5102783;27;20019;-46
2023/07/28 14:12:32;;;;;;;0.57;0.40;;;;;;;;;;5101202;27;20493;-47
2023/07/28 14:14:58;;;;;;;3.53;0.50;;;;;;;;;;5087392;27;20050;-45
2023/07/28 14:17:23;;;;;;;0.53;0.30;;;;;;;;;;5099549;27;20047;-47
2023/07/28 14:19:48;;;;;;;1.33;0.57;;;;;;;;;;5081088;27;20031;-45
2023/07/28 14:22:14;;;;;;;8.83;5.00;;;;;;;;;;5089226;27;20321;-46
2023/07/28 14:24:39;;;;;;;0.65;0.50;;;;;;;;;;5083337;27;20336;-46
2023/07/28 14:27:05;;;;;;;0.70;0.43;;;;;;;;;;5087977;27;20027;-45
2023/07/28 14:29:30;;;;;;;0.68;0.40;;;;;;;;;;5101645;27;20281;-45
2023/07/28 14:31:55;;;;;;;0.75;0.45;;;;;;;;;;5095863;27;20023;-47
2023/07/28 14:34:20;;;;;;;0.80;0.40;;;;;;;;;;5095679;28;20497;-45
2023/07/28 14:36:46;;;;;;;0.63;0.30;;;;;;;;;;5097624;27;20056;-45